createdAt,value
2023-02-17T00:00:17.710Z,102051.63
2023-02-17T00:02:44.296Z,102043.78
2023-02-17T00:05:10.891Z,102051.41
2023-02-17T00:07:37.538Z,102040.19
2023-02-17T00:10:04.259Z,102045.50
2023-02-17T00:12:30.901Z,102045.50
2023-02-17T00:14:57.477Z,102045.59
2023-02-17T00:17:24.108Z,102056.09
2023-02-17T00:19:50.711Z,102044.63
2023-02-17T00:22:17.263Z,102048.13
2023-02-17T00:24:43.981Z,102043.91
2023-02-17T00:27:10.994Z,102035.94
2023-02-17T00:29:37.661Z,102038.50
2023-02-17T00:32:06.993Z,102033.28
2023-02-17T00:34:33.684Z,102019.94
2023-02-17T00:37:00.437Z,102030.63
2023-02-17T00:39:27.076Z,102026.19
2023-02-17T00:41:53.641Z,102029.03
2023-02-17T00:44:23.376Z,102036.78
2023-02-17T00:46:50.480Z,102033.28
2023-02-17T00:49:20.131Z,102030.84
2023-02-17T00:51:47.389Z,102022.91
2023-02-17T00:54:15.209Z,102036.03
2023-02-17T00:56:42.001Z,102013.25
2023-02-17T00:59:09.864Z,102029.91
2023-02-17T01:01:37.290Z,102023.00
2023-02-17T01:04:04.478Z,102038.06
2023-02-17T01:06:34.463Z,102033.50
2023-02-17T01:09:01.509Z,102018.66
2023-02-17T01:11:31.959Z,102020.44
2023-02-17T01:13:59.838Z,102018.66
2023-02-17T01:16:35.306Z,102015.91
2023-02-17T01:19:08.280Z,102023.84
2023-02-17T01:21:35.803Z,102008.16
2023-02-17T01:24:04.526Z,102019.50
2023-02-17T01:26:33.809Z,102016.00
2023-02-17T01:29:00.700Z,102011.75
2023-02-17T01:31:27.869Z,102013.34
2023-02-17T01:33:56.944Z,102012.50
2023-02-17T01:36:24.272Z,102022.25
2023-02-17T01:38:51.246Z,102016.09
2023-02-17T01:41:19.773Z,102022.25
2023-02-17T01:44:05.092Z,102018.75
2023-02-17T01:46:36.334Z,102010.06
2023-02-17T01:49:28.101Z,102010.91
2023-02-17T01:52:03.730Z,101996.81
2023-02-17T01:54:37.624Z,102009.25
2023-02-17T01:57:04.919Z,102003.09
2023-02-17T01:59:32.512Z,101999.47
2023-02-17T02:02:03.862Z,101997.78
2023-02-17T02:04:34.506Z,101997.78
2023-02-17T02:07:01.132Z,101985.50
2023-02-17T02:09:52.945Z,101975.84
2023-02-17T02:12:25.681Z,101974.16
2023-02-17T02:14:54.965Z,101972.66
2023-02-17T02:17:36.820Z,101969.06
2023-02-17T02:20:18.247Z,101970.75
2023-02-17T02:22:56.619Z,101969.06
2023-02-17T02:25:52.197Z,101961.09
2023-02-17T02:28:29.039Z,101953.16
2023-02-17T02:31:14.224Z,101959.31
2023-02-17T02:34:02.973Z,101951.47
2023-02-17T02:36:33.045Z,101958.56
2023-02-17T02:39:17.218Z,101961.22
2023-02-17T02:41:55.754Z,101961.22
2023-02-17T02:44:22.981Z,101953.25
2023-02-17T02:46:57.477Z,101950.72
2023-02-17T02:49:24.475Z,101934.81
2023-02-17T02:52:13.760Z,101947.22
2023-02-17T02:54:49.308Z,101941.06
2023-02-17T02:57:24.730Z,101932.28
2023-02-17T03:00:10.644Z,101940.22
2023-02-17T03:03:03.321Z,101936.72
2023-02-17T03:05:42.515Z,101927.06
2023-02-17T03:08:15.611Z,101927.06
2023-02-17T03:10:48.280Z,101922.63
2023-02-17T03:13:16.135Z,101932.38
2023-02-17T03:15:43.134Z,101926.25
2023-02-17T03:18:09.885Z,101927.06
2023-02-17T03:20:39.629Z,101915.53
2023-02-17T03:23:07.244Z,101903.22
2023-02-17T03:25:33.789Z,101888.19
2023-02-17T03:28:00.325Z,101879.38
2023-02-17T03:30:26.947Z,101875.94
2023-02-17T03:32:53.755Z,101882.19
2023-02-17T03:35:20.410Z,101875.94
2023-02-17T03:37:47.033Z,101870.72
2023-02-17T03:40:13.592Z,101879.53
2023-02-17T03:42:40.186Z,101874.22
2023-02-17T03:45:07.043Z,101879.53
2023-02-17T03:47:33.632Z,101884.81
2023-02-17T03:50:00.167Z,101874.34
2023-02-17T03:52:26.773Z,101879.00
2023-02-17T03:54:53.377Z,101870.09
2023-02-17T03:57:19.927Z,101873.59
2023-02-17T03:59:46.516Z,101874.53
2023-02-17T04:02:13.065Z,101868.41
2023-02-17T04:04:39.809Z,101877.41
2023-02-17T04:07:06.413Z,101886.19
2023-02-17T04:09:32.947Z,101895.22
2023-02-17T04:11:59.496Z,101894.25
2023-02-17T04:14:26.004Z,101902.31
2023-02-17T04:16:52.511Z,101905.81
2023-02-17T04:19:21.158Z,101900.59
2023-02-17T04:21:47.880Z,101897.47
2023-02-17T04:24:14.464Z,101886.75
2023-02-17T04:26:41.073Z,101884.09
2023-02-17T04:29:07.596Z,101872.56
2023-02-17T04:31:34.276Z,101870.75
2023-02-17T04:34:00.905Z,101858.38
2023-02-17T04:36:27.412Z,101863.88
2023-02-17T04:38:53.978Z,101870.00
2023-02-17T04:41:20.559Z,101868.22
2023-02-17T04:43:47.208Z,101851.56
2023-02-17T04:46:13.805Z,101856.78
2023-02-17T04:48:40.411Z,101849.03
2023-02-17T04:51:07.021Z,101851.56
2023-02-17T04:53:33.627Z,101852.53
2023-02-17T04:56:00.246Z,101853.59
2023-02-17T04:58:26.837Z,101876.47
2023-02-17T05:00:53.425Z,101875.63
2023-02-17T05:03:20.316Z,101863.34
2023-02-17T05:05:46.997Z,101866.94
2023-02-17T05:08:13.612Z,101864.28
2023-02-17T05:10:40.158Z,101871.63
2023-02-17T05:13:06.925Z,101879.34
2023-02-17T05:15:34.966Z,101866.34
2023-02-17T05:18:02.089Z,101873.19
2023-02-17T05:20:28.931Z,101878.59
2023-02-17T05:22:55.472Z,101865.47
2023-02-17T05:25:22.068Z,101861.75
2023-02-17T05:27:48.766Z,101853.09
2023-02-17T05:30:15.554Z,101850.44
2023-02-17T05:32:42.200Z,101845.97
2023-02-17T05:35:09.317Z,101838.25
2023-02-17T05:37:36.178Z,101853.19
2023-02-17T05:40:02.772Z,101840.81
2023-02-17T05:42:29.494Z,101834.66
2023-02-17T05:44:56.432Z,101847.06
2023-02-17T05:47:23.803Z,101827.66
2023-02-17T05:49:50.473Z,101822.38
2023-02-17T05:52:18.321Z,101830.22
2023-02-17T05:54:45.177Z,101826.81
2023-02-17T05:57:11.803Z,101838.25
2023-02-17T05:59:38.373Z,101832.00
2023-02-17T06:02:04.988Z,101836.34
2023-02-17T06:04:31.800Z,101840.81
2023-02-17T06:06:58.514Z,101847.78
2023-02-17T06:09:25.137Z,101835.50
2023-02-17T06:11:52.152Z,101833.81
2023-02-17T06:14:18.762Z,101832.00
2023-02-17T06:16:45.338Z,101829.34
2023-02-17T06:19:11.904Z,101827.41
2023-02-17T06:21:38.496Z,101827.41
2023-02-17T06:24:05.509Z,101821.91
2023-02-17T06:26:32.035Z,101809.41
2023-02-17T06:28:58.586Z,101809.41
2023-02-17T06:31:25.154Z,101804.00
2023-02-17T06:33:51.825Z,101812.69
2023-02-17T06:36:18.376Z,101808.25
2023-02-17T06:38:44.909Z,101803.78
2023-02-17T06:41:11.481Z,101802.84
2023-02-17T06:43:38.049Z,101801.88
2023-02-17T06:46:05.074Z,101795.63
2023-02-17T06:48:33.170Z,101785.84
2023-02-17T06:51:00.745Z,101771.66
2023-02-17T06:53:27.377Z,101783.09
2023-02-17T06:55:53.931Z,101798.03
2023-02-17T06:58:20.547Z,101805.03
2023-02-17T07:00:47.126Z,101824.53
2023-02-17T07:03:13.839Z,101827.06
2023-02-17T07:05:40.427Z,101819.03
2023-02-17T07:08:07.201Z,101824.22
2023-02-17T07:10:34.286Z,101813.72
2023-02-17T07:13:00.909Z,101817.97
2023-02-17T07:15:27.518Z,101811.91
2023-02-17T07:17:54.050Z,101807.34
2023-02-17T07:20:20.626Z,101802.16
2023-02-17T07:22:47.186Z,101798.56
2023-02-17T07:25:13.752Z,101806.31
2023-02-17T07:27:40.291Z,101792.22
2023-02-17T07:30:07.555Z,101784.25
2023-02-17T07:32:35.516Z,101785.09
2023-02-17T07:35:02.148Z,101785.09
2023-02-17T07:37:28.728Z,101785.00
2023-02-17T07:39:57.105Z,101799.91
2023-02-17T07:42:24.343Z,101793.78
2023-02-17T07:44:50.944Z,101790.16
2023-02-17T07:47:17.544Z,101784.84
2023-02-17T07:49:44.268Z,101780.66
2023-02-17T07:52:10.954Z,101794.75
2023-02-17T07:54:37.548Z,101806.31
2023-02-17T07:57:04.214Z,101807.25
2023-02-17T07:59:30.745Z,101800.25
2023-02-17T08:01:57.331Z,101808.22
2023-02-17T08:04:24.031Z,101810.00
2023-02-17T08:06:50.692Z,101837.47
2023-02-17T08:09:35.925Z,101827.91
2023-02-17T08:12:21.027Z,101835.03
2023-02-17T08:14:47.540Z,101836.06
2023-02-17T08:17:14.132Z,101844.75
2023-02-17T08:19:48.125Z,101829.09
2023-02-17T08:22:17.035Z,101829.09
2023-02-17T08:24:43.704Z,101823.94
2023-02-17T08:27:10.298Z,101832.72
2023-02-17T08:29:36.885Z,101841.47
2023-02-17T08:32:04.087Z,101857.38
2023-02-17T08:34:33.786Z,101846.78
2023-02-17T08:37:01.745Z,101852.94
2023-02-17T08:39:28.679Z,101861.13
2023-02-17T08:41:55.727Z,101861.97
2023-02-17T08:44:22.680Z,101852.31
2023-02-17T08:46:51.058Z,101847.88
2023-02-17T08:49:21.615Z,101838.44
2023-02-17T08:51:48.567Z,101841.63
2023-02-17T08:54:15.150Z,101848.72
2023-02-17T08:56:42.387Z,101838.84
2023-02-17T08:59:10.876Z,101840.44
2023-02-17T09:01:38.667Z,101840.09
2023-02-17T09:04:07.866Z,101830.25
2023-02-17T09:06:42.893Z,101831.00
2023-02-17T09:09:11.584Z,101829.03
2023-02-17T09:11:38.652Z,101827.03
2023-02-17T09:14:05.646Z,101811.13
2023-02-17T09:16:32.644Z,101832.97
2023-02-17T09:18:59.238Z,101824.06
2023-02-17T09:21:26.098Z,101823.00
2023-02-17T09:23:53.891Z,101829.84
2023-02-17T09:26:21.133Z,101820.09
2023-02-17T09:28:48.618Z,101827.94
2023-02-17T09:31:18.115Z,101817.22
2023-02-17T09:33:45.351Z,101818.81
2023-02-17T09:36:14.871Z,101822.44
2023-02-17T09:38:42.178Z,101819.56
2023-02-17T09:41:23.581Z,101812.34
2023-02-17T09:43:51.911Z,101825.59
2023-02-17T09:46:30.299Z,101820.28
2023-02-17T09:49:02.151Z,101819.22
2023-02-17T09:51:37.647Z,101824.53
2023-02-17T09:54:11.072Z,101820.06
2023-02-17T09:56:41.392Z,101849.22
2023-02-17T09:59:42.962Z,101857.91
2023-02-17T10:02:17.617Z,101860.53
2023-02-17T10:04:47.126Z,101866.69
2023-02-17T10:07:20.659Z,101868.50
2023-02-17T10:09:52.649Z,101857.03
2023-02-17T10:12:25.116Z,101863.94
2023-02-17T10:14:59.672Z,101848.88
2023-02-17T10:17:29.080Z,101860.31
2023-02-17T10:20:06.913Z,101852.38
2023-02-17T10:22:34.526Z,101856.72
2023-02-17T10:25:02.712Z,101853.22
2023-02-17T10:27:53.662Z,101870.72
2023-02-17T10:30:57.711Z,101875.16
2023-02-17T10:33:45.044Z,101861.81
2023-02-17T10:36:33.999Z,101870.59
2023-02-17T10:39:08.718Z,101865.19
2023-02-17T10:41:38.039Z,101876.66
2023-02-17T10:44:11.949Z,101892.66
2023-02-17T10:46:42.191Z,101883.75
2023-02-17T10:49:28.190Z,101904.00
2023-02-17T10:51:55.866Z,101923.41
2023-02-17T10:54:40.268Z,101926.66
2023-02-17T10:57:12.845Z,101920.50
2023-02-17T10:59:42.949Z,101915.09
2023-02-17T11:02:17.559Z,101923.78
2023-02-17T11:04:46.539Z,101909.69
2023-02-17T11:07:16.733Z,101939.72
2023-02-17T11:09:50.457Z,101945.84
2023-02-17T11:12:22.922Z,101945.75
2023-02-17T11:14:51.945Z,101951.06
2023-02-17T11:17:39.888Z,101971.31
2023-02-17T11:20:27.234Z,101968.66
2023-02-17T11:23:04.675Z,101959.75
2023-02-17T11:25:34.176Z,101950.09
2023-02-17T11:28:24.944Z,101957.09
2023-02-17T11:30:54.970Z,101946.50
2023-02-17T11:33:37.610Z,101961.44
2023-02-17T11:36:07.025Z,101957.84
2023-02-17T11:38:39.908Z,101957.69
2023-02-17T11:41:07.728Z,101962.19
2023-02-17T11:43:36.067Z,101969.16
2023-02-17T11:46:13.808Z,101969.06
2023-02-17T11:49:01.738Z,101976.16
2023-02-17T11:51:28.215Z,101953.13
2023-02-17T11:54:20.637Z,101942.63
2023-02-17T11:56:59.377Z,101950.38
2023-02-17T11:59:34.504Z,101965.34
2023-02-17T12:02:44.363Z,101958.34
2023-02-17T12:05:13.922Z,101956.41
2023-02-17T12:08:10.215Z,101966.94
2023-02-17T12:10:56.290Z,101969.56
2023-02-17T12:13:35.916Z,101981.88
2023-02-17T12:16:17.467Z,101980.94
2023-02-17T12:18:53.932Z,101986.22
2023-02-17T12:21:23.160Z,101974.69
2023-02-17T12:24:05.530Z,101978.94
2023-02-17T12:26:32.965Z,101977.25
2023-02-17T12:28:59.441Z,101981.59
2023-02-17T12:31:57.245Z,101990.41
2023-02-17T12:34:31.692Z,101980.75
2023-02-17T12:36:59.461Z,101986.03
2023-02-17T12:39:34.791Z,101998.22
2023-02-17T12:42:06.720Z,101996.50
2023-02-17T12:44:43.851Z,101993.88
2023-02-17T12:47:26.846Z,101985.91
2023-02-17T12:50:02.086Z,101984.00
2023-02-17T12:52:38.761Z,101996.31
2023-02-17T12:55:20.918Z,102001.59
2023-02-17T12:57:58.616Z,102000.66
2023-02-17T13:00:33.539Z,102012.00
2023-02-17T13:03:02.145Z,102002.34
2023-02-17T13:05:33.390Z,101990.78
2023-02-17T13:08:07.021Z,101996.09
2023-02-17T13:10:36.993Z,102002.25
2023-02-17T13:13:26.737Z,101999.69
2023-02-17T13:16:05.364Z,102023.34
2023-02-17T13:18:35.701Z,102016.25
2023-02-17T13:21:16.290Z,102014.53
2023-02-17T13:23:45.915Z,102017.09
2023-02-17T13:26:17.980Z,102021.44
2023-02-17T13:28:45.510Z,102013.47
2023-02-17T13:31:19.487Z,102006.47
2023-02-17T13:33:58.365Z,102013.25
2023-02-17T13:36:27.602Z,102023.84
2023-02-17T13:39:00.525Z,102024.69
2023-02-17T13:41:43.765Z,102037.00
2023-02-17T13:44:19.177Z,102034.34
2023-02-17T13:46:47.164Z,102007.81
2023-02-17T13:49:22.332Z,102003.38
2023-02-17T13:51:49.015Z,102000.81
2023-02-17T13:54:21.235Z,102020.03
2023-02-17T13:56:52.490Z,101993.50
2023-02-17T13:59:26.244Z,102008.47
2023-02-17T14:01:54.923Z,102013.66
2023-02-17T14:04:31.337Z,102003.88
2023-02-17T14:07:04.398Z,102018.84
2023-02-17T14:09:33.091Z,102017.03
2023-02-17T14:12:04.160Z,102017.03
2023-02-17T14:14:37.146Z,102027.56
2023-02-17T14:17:07.154Z,102019.69
2023-02-17T14:20:00.904Z,102041.66
2023-02-17T14:22:33.519Z,102025.75
2023-02-17T14:25:11.713Z,102041.56
2023-02-17T14:27:48.603Z,102050.22
2023-02-17T14:30:15.335Z,102038.78
2023-02-17T14:32:41.949Z,102038.66
2023-02-17T14:35:14.598Z,102042.16
2023-02-17T14:37:42.342Z,102042.06
2023-02-17T14:40:20.136Z,102045.66
2023-02-17T14:42:47.712Z,102055.22
2023-02-17T14:45:15.345Z,102061.38
2023-02-17T14:47:45.684Z,102057.88
2023-02-17T14:50:13.698Z,102057.75
2023-02-17T14:52:44.339Z,102055.09
2023-02-17T14:55:26.752Z,102062.97
2023-02-17T14:57:54.095Z,102066.47
2023-02-17T15:00:20.853Z,102069.00
2023-02-17T15:02:47.861Z,102073.47
2023-02-17T15:05:14.492Z,102071.56
2023-02-17T15:07:42.365Z,102082.16
2023-02-17T15:10:27.133Z,102091.81
2023-02-17T15:12:54.077Z,102097.97
2023-02-17T15:15:21.163Z,102075.75
2023-02-17T15:17:47.786Z,102071.31
2023-02-17T15:20:16.616Z,102067.69
2023-02-17T15:22:44.359Z,102086.28
2023-02-17T15:25:19.234Z,102107.50
2023-02-17T15:27:46.602Z,102108.47
2023-02-17T15:30:16.665Z,102114.53
2023-02-17T15:32:43.598Z,102102.94
2023-02-17T15:35:22.840Z,102098.59
2023-02-17T15:37:50.225Z,102115.38
2023-02-17T15:40:24.555Z,102120.56
2023-02-17T15:43:03.381Z,102118.75
2023-02-17T15:45:30.900Z,102113.44
2023-02-17T15:48:25.618Z,102114.31
2023-02-17T15:50:53.064Z,102132.03
2023-02-17T15:53:19.993Z,102134.69
2023-02-17T15:55:46.889Z,102131.94
2023-02-17T15:58:17.519Z,102127.47
2023-02-17T16:00:49.788Z,102131.06
2023-02-17T16:03:17.148Z,102138.09
2023-02-17T16:05:44.004Z,102135.31
2023-02-17T16:08:10.587Z,102139.78
2023-02-17T16:10:39.512Z,102144.13
2023-02-17T16:13:06.139Z,102135.31
2023-02-17T16:15:33.086Z,102144.13
2023-02-17T16:17:59.947Z,102147.63
2023-02-17T16:20:34.657Z,102145.84
2023-02-17T16:23:02.279Z,102154.66
2023-02-17T16:25:29.280Z,102167.19
2023-02-17T16:27:55.918Z,102169.84
2023-02-17T16:30:32.201Z,102160.06
2023-02-17T16:32:59.559Z,102169.72
2023-02-17T16:35:32.043Z,102162.63
2023-02-17T16:38:02.813Z,102162.63
2023-02-17T16:40:32.429Z,102168.78
2023-02-17T16:42:59.174Z,102171.44
2023-02-17T16:45:28.879Z,102176.75
2023-02-17T16:47:57.964Z,102194.34
2023-02-17T16:50:27.808Z,102205.94
2023-02-17T16:52:57.078Z,102225.47
2023-02-17T16:55:27.381Z,102239.59
2023-02-17T16:57:53.988Z,102241.41
2023-02-17T17:00:23.220Z,102256.50
2023-02-17T17:02:50.131Z,102267.09
2023-02-17T17:05:18.637Z,102268.06
2023-02-17T17:07:45.382Z,102283.03
2023-02-17T17:10:17.164Z,102276.78
2023-02-17T17:12:45.975Z,102287.50
2023-02-17T17:15:13.404Z,102282.19
2023-02-17T17:17:46.198Z,102276.03
2023-02-17T17:20:18.849Z,102284.84
2023-02-17T17:22:46.726Z,102282.19
2023-02-17T17:25:14.472Z,102282.28
2023-02-17T17:27:41.843Z,102284.00
2023-02-17T17:30:18.666Z,102295.47
2023-02-17T17:32:45.627Z,102297.25
2023-02-17T17:35:12.668Z,102303.53
2023-02-17T17:37:39.668Z,102288.56
2023-02-17T17:40:07.078Z,102299.16
2023-02-17T17:42:33.751Z,102312.34
2023-02-17T17:45:00.321Z,102316.81
2023-02-17T17:47:30.279Z,102328.28
2023-02-17T17:49:57.191Z,102325.63
2023-02-17T17:52:24.274Z,102336.13
2023-02-17T17:54:50.958Z,102325.72
2023-02-17T17:57:17.575Z,102332.72
2023-02-17T17:59:44.280Z,102339.75
2023-02-17T18:02:10.843Z,102341.44
2023-02-17T18:04:37.381Z,102335.38
2023-02-17T18:07:03.991Z,102339.00
2023-02-17T18:09:36.607Z,102332.72
2023-02-17T18:12:11.112Z,102345.03
2023-02-17T18:14:40.048Z,102352.91
2023-02-17T18:17:08.981Z,102365.44
2023-02-17T18:19:35.662Z,102354.72
2023-02-17T18:22:02.319Z,102360.03
2023-02-17T18:24:28.897Z,102361.94
2023-02-17T18:26:55.654Z,102359.28
2023-02-17T18:29:22.463Z,102374.25
2023-02-17T18:31:49.221Z,102383.06
2023-02-17T18:34:15.851Z,102382.22
2023-02-17T18:36:42.475Z,102382.13
2023-02-17T18:39:08.979Z,102371.50
2023-02-17T18:41:35.655Z,102383.91
2023-02-17T18:44:04.657Z,102389.22
2023-02-17T18:46:33.202Z,102388.38
2023-02-17T18:49:00.302Z,102392.72
2023-02-17T18:51:27.736Z,102391.97
2023-02-17T18:53:56.515Z,102394.53
2023-02-17T18:56:25.932Z,102393.78
2023-02-17T18:58:55.288Z,102390.94
2023-02-17T19:01:28.513Z,102400.69
2023-02-17T19:03:55.576Z,102400.81
2023-02-17T19:06:25.356Z,102402.50
2023-02-17T19:08:52.613Z,102403.44
2023-02-17T19:11:21.711Z,102403.34
2023-02-17T19:13:49.208Z,102409.63
2023-02-17T19:16:22.206Z,102421.00
2023-02-17T19:18:49.090Z,102421.00
2023-02-17T19:21:15.807Z,102413.03
2023-02-17T19:23:42.686Z,102406.00
2023-02-17T19:26:11.672Z,102413.03
2023-02-17T19:28:39.579Z,102406.00
2023-02-17T19:31:10.624Z,102403.25
2023-02-17T19:33:37.511Z,102417.47
2023-02-17T19:36:10.053Z,102415.53
2023-02-17T19:38:37.032Z,102415.53
2023-02-17T19:41:08.501Z,102426.16
2023-02-17T19:43:35.482Z,102420.84
2023-02-17T19:46:02.535Z,102427.97
2023-02-17T19:48:29.306Z,102428.94
2023-02-17T19:51:01.657Z,102432.47
2023-02-17T19:53:28.727Z,102436.78
2023-02-17T19:55:55.301Z,102445.59
2023-02-17T19:58:21.868Z,102440.28
2023-02-17T20:00:48.775Z,102440.28
2023-02-17T20:03:15.402Z,102440.28
2023-02-17T20:05:42.452Z,102441.25
2023-02-17T20:08:09.035Z,102438.50
2023-02-17T20:10:39.558Z,102448.16
2023-02-17T20:13:06.108Z,102453.56
2023-02-17T20:15:32.886Z,102441.16
2023-02-17T20:17:59.644Z,102440.28
2023-02-17T20:20:26.233Z,102444.66
2023-02-17T20:22:52.760Z,102442.00
2023-02-17T20:25:19.313Z,102450.72
2023-02-17T20:27:45.836Z,102449.97
2023-02-17T20:30:12.752Z,102447.31
2023-02-17T20:32:39.536Z,102449.84
2023-02-17T20:35:06.481Z,102447.31
2023-02-17T20:37:33.041Z,102448.06
2023-02-17T20:39:59.594Z,102451.56
2023-02-17T20:42:26.124Z,102456.78
2023-02-17T20:44:54.476Z,102451.56
2023-02-17T20:47:21.070Z,102455.91
2023-02-17T20:49:47.823Z,102447.22
2023-02-17T20:52:14.411Z,102453.25
2023-02-17T20:54:41.068Z,102453.25
2023-02-17T20:57:15.164Z,102447.97
2023-02-17T20:59:41.738Z,102463.13
2023-02-17T21:02:08.334Z,102460.47
2023-02-17T21:04:34.954Z,102460.38
2023-02-17T21:07:01.629Z,102462.19
2023-02-17T21:09:28.458Z,102464.75
2023-02-17T21:11:55.041Z,102470.16
2023-02-17T21:14:21.586Z,102471.00
2023-02-17T21:16:48.281Z,102465.69
2023-02-17T21:19:15.198Z,102464.00
2023-02-17T21:21:41.854Z,102454.13
2023-02-17T21:24:08.435Z,102467.41
2023-02-17T21:26:35.072Z,102471.00
2023-02-17T21:29:01.756Z,102467.41
2023-02-17T21:31:31.116Z,102462.19
2023-02-17T21:33:58.683Z,102459.31
2023-02-17T21:36:27.464Z,102453.16
2023-02-17T21:38:55.550Z,102457.63
2023-02-17T21:41:26.501Z,102463.78
2023-02-17T21:44:12.558Z,102464.75
2023-02-17T21:46:41.758Z,102462.94
2023-02-17T21:49:08.337Z,102466.53
2023-02-17T21:51:37.231Z,102469.09
2023-02-17T21:54:05.523Z,102457.63
2023-02-17T21:56:32.637Z,102459.44
2023-02-17T21:58:59.223Z,102456.78
2023-02-17T22:01:27.128Z,102464.63
2023-02-17T22:03:54.167Z,102453.16
2023-02-17T22:06:24.237Z,102447.84
2023-02-17T22:08:51.005Z,102451.38
2023-02-17T22:11:20.670Z,102447.00
2023-02-17T22:13:47.982Z,102448.72
2023-02-17T22:16:15.233Z,102449.56
2023-02-17T22:18:41.990Z,102459.31
2023-02-17T22:21:11.972Z,102457.53
2023-02-17T22:23:39.224Z,102454.03
2023-02-17T22:26:11.284Z,102449.56
2023-02-17T22:28:38.195Z,102440.63
2023-02-17T22:31:05.781Z,102436.19
2023-02-17T22:33:32.899Z,102431.81
2023-02-17T22:36:01.737Z,102431.94
2023-02-17T22:38:28.725Z,102422.47
2023-02-17T22:40:55.574Z,102438.38
2023-02-17T22:43:22.438Z,102438.50
2023-02-17T22:45:49.081Z,102435.13
2023-02-17T22:48:15.691Z,102435.22
2023-02-17T22:50:42.452Z,102421.19
2023-02-17T22:53:09.033Z,102426.41
2023-02-17T22:55:35.623Z,102424.69
2023-02-17T22:58:02.205Z,102425.75
2023-02-17T23:00:28.756Z,102419.59
2023-02-17T23:02:55.346Z,102414.28
2023-02-17T23:05:21.935Z,102407.38
2023-02-17T23:07:48.586Z,102409.91
2023-02-17T23:10:15.140Z,102406.41
2023-02-17T23:12:41.740Z,102408.22
2023-02-17T23:15:12.294Z,102417.97
2023-02-17T23:17:56.328Z,102408.50
2023-02-17T23:20:24.888Z,102412.16
2023-02-17T23:22:51.944Z,102411.31
2023-02-17T23:25:18.656Z,102410.31
2023-02-17T23:27:45.228Z,102404.28
2023-02-17T23:30:19.453Z,102406.84
2023-02-17T23:32:46.025Z,102407.78
2023-02-17T23:35:12.669Z,102391.13
2023-02-17T23:37:39.262Z,102380.41
2023-02-17T23:40:06.465Z,102377.84
2023-02-17T23:42:33.033Z,102383.16
2023-02-17T23:44:59.567Z,102377.94
2023-02-17T23:47:26.277Z,102375.28
2023-02-17T23:49:52.816Z,102370.94
2023-02-17T23:52:19.336Z,102362.97
2023-02-17T23:54:45.856Z,102361.28
2023-02-17T23:57:12.476Z,102355.22
2023-02-17T23:59:39.016Z,102361.38
